East Quogue, New York
Current Conditions -  °F | °C
As of 3:53 AM on Sunday 26 Oct 2014 (Local Time) from KFOK Reporting Station
Broken Clouds Broken Clouds  
Wind Chill: 14°   Ceiling: 11000
Heat Index: 14°   Visibility: 10mi
Dew Point:   Wind: 7mph
Humidity: 67%   Direction: 270°W
Pressure: 29.53"   Gusts: NA
Location:  40.85°N, 72.58°W
Report Text: KFOK 260753Z 27006KT 10SM BKN110 14/08 A2953 RMK AO2 RAE02 SLP998 P0000 T01440083
Loading
Personal Weather Stations






























Interactive Weather Map
Tropical Storm Tracking
New forecast layout! Learn more

10-Day Weather Forecast

Advertisements
Track Severe Weather on mobile